Time;durP1;ratioP1;P1;durP2;ratioP2;P2;SDS_P1;SDS_P2;PMS_P1;PMS_P2;Temp;Humidity;BMP_temperature;BMP_pressure;BME280_temperature;BME280_humidity;BME280_pressure;Samples;Min_cycle;Max_cycle;Signal;HPM_P1;HPM_P2
2022/10/31 00:04:03;;;;;;;2.10;1.40;;;14.80;99.90;;;;;;20882856;28;20217;-72
2022/10/31 00:14:05;;;;;;;3.43;1.77;;;;;;;;;;20894372;28;20226;-72
2022/10/31 00:24:07;;;;;;;2.40;1.40;;;;;;;;;;20903197;28;20205;-72
2022/10/31 00:34:08;;;;;;;5.43;1.63;;;;;;;;;;20902429;28;20221;-72
2022/10/31 00:44:11;;;;;;;2.57;1.83;;;;;;;;;;20876860;28;20206;-73
2022/10/31 00:54:12;;;;;;;3.70;1.57;;;;;;;;;;20887063;28;20226;-72
2022/10/31 01:04:14;;;;;;;2.17;1.50;;;;;;;;;;20885589;28;20210;-72
2022/10/31 01:14:16;;;;;;;2.07;1.10;;;;;;;;;;20809084;28;20219;-72
2022/10/31 01:24:18;;;;;;;2.83;1.50;;;;;;;;;;20816685;28;20206;-70
2022/10/31 01:34:19;;;;;;;1.50;0.97;;;;;;;;;;20816600;28;20280;-72
2022/10/31 01:44:21;;;;;;;1.60;1.00;;;;;;;;;;20823121;28;20202;-73
2022/10/31 01:54:25;;;;;;;1.87;1.30;;;;;;;;;;20815288;28;20214;-73
2022/10/31 02:04:26;;;;;;;2.93;1.50;;;;;;;;;;20825727;28;20202;-72
2022/10/31 02:14:29;;;;;;;4.83;2.20;;;;;;;;;;20829257;28;20356;-73
2022/10/31 02:24:34;;;;;;;3.10;1.90;;;14.10;99.90;;;;;;20829059;28;20233;-73
2022/10/31 02:34:39;;;;;;;2.67;1.60;;;;;;;;;;20811436;28;20253;-72
2022/10/31 02:44:50;;;;;;;3.00;1.70;;;;;;;;;;20826978;28;20264;-72
2022/10/31 02:54:52;;;;;;;3.23;1.80;;;;;;;;;;20826824;28;20222;-72
2022/10/31 03:05:05;;;;;;;5.30;2.00;;;;;;;;;;20887414;28;20217;-73
2022/10/31 03:15:10;;;;;;;4.47;1.83;;;;;;;;;;20906828;28;20276;-72
2022/10/31 03:25:13;;;;;;;3.00;1.70;;;;;;;;;;20889974;28;20214;-72
2022/10/31 03:35:18;;;;;;;2.33;1.30;;;;;;;;;;20905885;28;20279;-72
2022/10/31 03:45:23;;;;;;;7.53;2.07;;;;;;;;;;20905270;28;20587;-72
2022/10/31 03:55:37;;;;;;;5.57;2.80;;;;;;;;;;20904071;28;20578;-72
2022/10/31 04:05:39;;;;;;;5.43;2.87;;;;;;;;;;20849075;28;20222;-72
2022/10/31 04:15:44;;;;;;;6.27;2.13;;;13.60;99.90;;;;;;20815867;28;20214;-72
2022/10/31 04:25:46;;;;;;;5.00;2.20;;;;;;;;;;20819760;28;20210;-72
2022/10/31 04:35:48;;;;;;;5.20;2.30;;;;;;;;;;20821649;28;20219;-72
2022/10/31 04:45:50;;;;;;;7.70;2.07;;;;;;;;;;20801443;28;20264;-72
2022/10/31 04:55:52;;;;;;;4.53;1.93;;;;;;;;;;20816920;28;20237;-72
2022/10/31 05:05:58;;;;;;;4.07;1.87;;;;;;;;;;20816810;28;20222;-72
2022/10/31 05:15:59;;;;;;;3.83;2.30;;;;;;;;;;20815734;28;20210;-72
2022/10/31 05:26:30;;;;;;;2.80;1.97;;;;;;;;;;20818148;28;20248;-72
2022/10/31 05:36:32;;;;;;;2.67;1.67;;;;;;;;;;20830067;28;20214;-72
2022/10/31 05:46:46;;;;;;;2.97;1.97;;;13.10;99.90;;;;;;20862622;28;20237;-72
2022/10/31 05:56:53;;;;;;;2.87;1.83;;;;;;;;;;20831476;28;20222;-72
2022/10/31 06:06:56;;;;;;;3.40;1.63;;;;;;;;;;20863405;22;20280;-74
2022/10/31 06:16:58;;;;;;;2.70;1.50;;;;;;;;;;20740639;28;20204;-73
2022/10/31 06:27:18;;;;;;;3.00;1.37;;;;;;;;;;20682738;28;20234;-73
2022/10/31 06:37:20;;;;;;;2.40;1.70;;;;;;;;;;20655146;28;20224;-73
2022/10/31 06:47:25;;;;;;;2.03;1.40;;;;;;;;;;20696229;28;20231;-73
2022/10/31 06:57:49;;;;;;;4.50;1.80;;;;;;;;;;20638346;28;20267;-74
2022/10/31 07:08:03;;;;;;;3.73;1.93;;;13.20;99.90;;;;;;20650234;28;20289;-71
2022/10/31 07:18:07;;;;;;;3.10;1.60;;;;;;;;;;20672977;28;20246;-72
2022/10/31 07:28:09;;;;;;;4.07;1.70;;;13.30;99.90;;;;;;20661657;28;20278;-72
2022/10/31 07:38:13;;;;;;;2.80;1.80;;;;;;;;;;20624415;28;20274;-74
2022/10/31 07:48:15;;;;;;;4.23;2.10;;;;;;;;;;20622036;28;20267;-74
2022/10/31 07:58:35;;;;;;;2.33;1.50;;;;;;;;;;20641462;28;20635;-73
2022/10/31 08:08:37;;;;;;;2.30;1.83;;;;;;;;;;20661621;28;20845;-75
2022/10/31 08:18:39;;;;;;;4.13;2.20;;;;;;;;;;20621249;28;20690;-75
2022/10/31 08:28:46;;;;;;;6.90;2.37;;;;;;;;;;20702578;28;20286;-75
2022/10/31 08:38:48;;;;;;;2.77;1.77;;;;;;;;;;20583695;28;20212;-79
2022/10/31 08:48:52;;;;;;;4.77;2.77;;;;;;;;;;20546285;28;20216;-74
2022/10/31 08:58:55;;;;;;;5.03;3.07;;;;;;;;;;20623756;28;20246;-73
2022/10/31 09:09:06;;;;;;;4.70;3.03;;;;;;;;;;20671523;28;20262;-73
2022/10/31 09:19:08;;;;;;;4.03;2.67;;;;;;;;;;20640626;28;20680;-73
2022/10/31 09:29:11;;;;;;;15.40;3.80;;;;;;;;;;20623548;28;20721;-73
2022/10/31 09:39:14;;;;;;;5.43;2.77;;;;;;;;;;20666802;28;20278;-74
2022/10/31 09:49:46;;;;;;;5.00;2.50;;;;;;;;;;20624007;28;20290;-74
2022/10/31 09:59:49;;;;;;;5.13;2.87;;;15.30;99.90;;;;;;20623323;28;20263;-75
2022/10/31 10:09:53;;;;;;;6.83;3.13;;;;;;;;;;20606553;28;20766;-75
2022/10/31 10:20:04;;;;;;;3.83;2.73;;;;;;;;;;20647798;28;20220;-75
2022/10/31 10:30:06;;;;;;;4.93;2.80;;;;;;;;;;20664074;28;20251;-75
2022/10/31 10:40:18;;;;;;;5.57;3.23;;;;;;;;;;20663769;28;20304;-72
2022/10/31 10:50:25;;;;;;;4.33;2.80;;;;;;;;;;20662504;28;20224;-74
2022/10/31 11:00:31;;;;;;;6.47;3.00;;;;;;;;;;20666206;28;20223;-72
2022/10/31 11:10:33;;;;;;;4.67;3.03;;;;;;;;;;20655781;28;20244;-73
2022/10/31 11:20:36;;;;;;;6.17;3.13;;;16.40;99.90;;;;;;20638779;28;20211;-73
2022/10/31 11:30:46;;;;;;;6.67;2.97;;;;;;;;;;20627517;28;20228;-71
2022/10/31 11:41:00;;;;;;;5.70;3.10;;;16.30;99.90;;;;;;20563637;28;20747;-71
2022/10/31 11:51:02;;;;;;;4.43;2.97;;;;;;;;;;20579043;28;20778;-76
2022/10/31 12:01:04;;;;;;;5.17;2.97;;;;;;;;;;20602346;28;20742;-75
2022/10/31 12:11:29;;;;;;;3.63;2.30;;;;;;;;;;20606470;28;20227;-73
2022/10/31 12:21:36;;;;;;;5.27;3.77;;;;;;;;;;20817799;23;20298;-72
2022/10/31 12:31:47;;;;;;;5.57;2.97;;;;;;;;;;20791925;28;20435;-72
2022/10/31 12:41:54;;;;;;;4.03;2.80;;;;;;;;;;20796034;28;20217;-76
2022/10/31 12:51:56;;;;;;;6.27;3.30;;;;;;;;;;20798337;28;20351;-78
2022/10/31 13:02:04;;;;;;;3.93;2.87;;;;;;;;;;20812057;28;20275;-74
2022/10/31 13:12:11;;;;;;;6.00;3.07;;;16.20;99.90;;;;;;20796834;28;20273;-73
2022/10/31 13:22:17;;;;;;;4.60;3.30;;;;;;;;;;20731021;28;20582;-74
2022/10/31 13:32:19;;;;;;;5.20;2.93;;;17.20;99.90;;;;;;20746803;28;20301;-74
2022/10/31 13:42:51;;;;;;;3.90;2.77;;;17.50;99.90;;;;;;20746383;28;20249;-74
2022/10/31 13:53:10;;;;;;;4.13;2.53;;;17.50;99.90;;;;;;20746024;28;20574;-74
2022/10/31 14:03:19;;;;;;;3.57;2.33;;;;;;;;;;20769170;28;20681;-74
2022/10/31 14:13:23;;;;;;;4.30;2.30;;;16.90;99.90;;;;;;20805955;28;20230;-73
2022/10/31 14:23:32;;;;;;;6.20;2.60;;;;;;;;;;20811584;28;20640;-73
2022/10/31 14:33:34;;;;;;;4.53;2.60;;;;;;;;;;20809514;28;20280;-73
2022/10/31 14:44:02;;;;;;;5.80;2.70;;;;;;;;;;20811629;28;20227;-74
2022/10/31 14:54:13;;;;;;;4.53;2.63;;;;;;;;;;20765460;28;20242;-72
2022/10/31 15:04:19;;;;;;;4.17;2.50;;;;;;;;;;20748574;28;20334;-72
2022/10/31 15:14:29;;;;;;;5.07;2.80;;;16.30;99.90;;;;;;20732885;28;20369;-72
2022/10/31 15:24:34;;;;;;;4.37;2.57;;;;;;;;;;20734983;28;20285;-72
2022/10/31 15:34:42;;;;;;;6.13;2.67;;;;;;;;;;20738421;28;20215;-72
2022/10/31 15:44:45;;;;;;;5.83;3.13;;;;;;;;;;20773156;28;20260;-72
2022/10/31 15:54:52;;;;;;;6.63;2.80;;;;;;;;;;20810603;28;20713;-73
2022/10/31 16:05:01;;;;;;;4.00;2.63;;;16.00;99.90;;;;;;20814575;28;20288;-72
2022/10/31 16:15:04;;;;;;;4.90;2.33;;;;;;;;;;20778195;28;20234;-73
2022/10/31 16:25:17;;;;;;;4.93;2.50;;;;;;;;;;20789418;28;20247;-72
2022/10/31 16:35:35;;;;;;;7.37;2.57;;;15.90;99.90;;;;;;20809450;28;20280;-73
2022/10/31 16:45:36;;;;;;;5.30;2.83;;;;;;;;;;20811408;28;20257;-72
2022/10/31 16:55:58;;;;;;;4.83;3.00;;;15.80;99.90;;;;;;20810202;28;20755;-72
2022/10/31 17:06:01;;;;;;;5.10;3.23;;;;;;;;;;20810806;28;20234;-73
2022/10/31 17:16:03;;;;;;;7.07;2.83;;;;;;;;;;20792501;28;20775;-73
2022/10/31 17:26:07;;;;;;;4.93;2.60;;;;;;;;;;20785492;28;20662;-72
2022/10/31 17:36:09;;;;;;;5.23;3.10;;;;;;;;;;20740419;28;20753;-76
2022/10/31 17:46:11;;;;;;;7.00;3.00;;;;;;;;;;20750951;28;20230;-73
2022/10/31 17:56:14;;;;;;;3.93;2.47;;;;;;;;;;20818234;28;20341;-73
2022/10/31 18:06:15;;;;;;;3.60;2.67;;;;;;;;;;20824956;28;20218;-73
2022/10/31 18:16:18;;;;;;;5.87;2.80;;;;;;;;;;20834008;22;20231;-80
2022/10/31 18:26:26;;;;;;;3.77;2.23;;;15.30;99.90;;;;;;20728750;28;20710;-80
2022/10/31 18:36:27;;;;;;;4.63;2.57;;;;;;;;;;20655760;28;20216;-81
2022/10/31 18:46:29;;;;;;;5.30;2.97;;;;;;;;;;20671812;28;20243;-81
2022/10/31 18:56:31;;;;;;;6.27;3.20;;;;;;;;;;20656059;28;20212;-82
2022/10/31 19:06:33;;;;;;;5.43;2.53;;;;;;;;;;20613332;28;20240;-81
2022/10/31 19:16:35;;;;;;;5.67;2.80;;;;;;;;;;20571954;28;20630;-80
2022/10/31 19:26:37;;;;;;;5.03;3.30;;;;;;;;;;20615998;28;20283;-80
2022/10/31 19:36:39;;;;;;;3.93;2.80;;;;;;;;;;20586269;28;20232;-81
2022/10/31 19:46:43;;;;;;;7.10;2.87;;;;;;;;;;20584750;28;20237;-80
2022/10/31 19:56:45;;;;;;;4.53;2.60;;;;;;;;;;20599927;28;20217;-81
2022/10/31 20:06:47;;;;;;;3.63;2.53;;;;;;;;;;20583900;28;20280;-80
2022/10/31 20:16:49;;;;;;;6.60;3.60;;;;;;;;;;20583695;28;20287;-81
2022/10/31 20:26:51;;;;;;;7.30;3.30;;;;;;;;;;20644634;28;20282;-80
2022/10/31 20:36:52;;;;;;;7.40;4.10;;;;;;;;;;20644609;28;20735;-80
2022/10/31 20:46:54;;;;;;;7.63;4.50;;;;;;;;;;20627537;28;20232;-81
2022/10/31 20:56:56;;;;;;;5.87;4.57;;;;;;;;;;20643471;28;20844;-81
2022/10/31 21:06:57;;;;;;;4.77;3.33;;;;;;;;;;20629503;28;20760;-82
2022/10/31 21:16:59;;;;;;;4.50;2.73;;;;;;;;;;20638809;28;20223;-81
2022/10/31 21:27:03;;;;;;;3.80;2.10;;;;;;;;;;20658059;28;20215;-79
2022/10/31 21:37:04;;;;;;;2.80;2.13;;;;;;;;;;20655543;28;20616;-80
2022/10/31 21:47:06;;;;;;;6.80;4.30;;;;;;;;;;20640777;28;20562;-81
2022/10/31 21:57:08;;;;;;;4.90;3.70;;;;;;;;;;20640458;28;20267;-82
2022/10/31 22:07:10;;;;;;;6.40;3.37;;;;;;;;;;20656607;28;20224;-80
2022/10/31 22:17:12;;;;;;;6.07;3.57;;;;;;;;;;20662976;28;20293;-80
2022/10/31 22:27:14;;;;;;;4.73;3.60;;;;;;;;;;20672581;28;20262;-80
2022/10/31 22:37:15;;;;;;;7.03;3.73;;;;;;;;;;20677604;28;20224;-80
2022/10/31 22:47:17;;;;;;;6.13;2.97;;;;;;;;;;20674395;28;20212;-82
2022/10/31 22:57:19;;;;;;;4.93;2.77;;;;;;;;;;20654986;28;20212;-81
2022/10/31 23:07:20;;;;;;;3.67;2.70;;;;;;;;;;20654336;28;20633;-82
2022/10/31 23:17:22;;;;;;;3.70;2.40;;;;;;;;;;20637551;28;20231;-79
2022/10/31 23:27:25;;;;;;;6.10;3.03;;;;;;;;;;20669257;28;20254;-80
2022/10/31 23:37:30;;;;;;;3.97;2.30;;;13.90;99.90;;;;;;20668705;28;20274;-80
2022/10/31 23:47:31;;;;;;;4.47;2.80;;;;;;;;;;20651021;28;20275;-80
2022/10/31 23:57:33;;;;;;;5.27;2.50;;;;;;;;;;20664375;28;20208;-81
